createdAt,value
2022-12-01T00:01:33.833Z,11.90
2022-12-01T00:04:01.594Z,13.60
2022-12-01T00:06:29.361Z,16.00
2022-12-01T00:09:19.739Z,15.70
2022-12-01T00:11:48.915Z,15.20
2022-12-01T00:14:17.596Z,14.90
2022-12-01T00:16:45.542Z,16.50
2022-12-01T00:19:13.482Z,14.00
2022-12-01T00:21:41.262Z,17.00
2022-12-01T00:24:10.629Z,14.20
2022-12-01T00:26:38.844Z,15.60
2022-12-01T00:29:07.204Z,16.70
2022-12-01T00:31:35.144Z,11.60
2022-12-01T00:34:06.880Z,12.20
2022-12-01T00:36:37.300Z,14.10
2022-12-01T00:39:05.099Z,14.40
2022-12-01T00:41:33.566Z,16.10
2022-12-01T00:44:01.345Z,16.00
2022-12-01T00:46:29.114Z,13.10
2022-12-01T00:48:56.989Z,13.70
2022-12-01T00:51:24.734Z,15.10
2022-12-01T00:53:52.497Z,16.60
2022-12-01T00:56:21.159Z,15.70
2022-12-01T00:58:48.845Z,17.30
2022-12-01T01:01:16.712Z,15.00
2022-12-01T01:03:44.474Z,18.60
2022-12-01T01:06:12.934Z,16.60
2022-12-01T01:08:41.433Z,18.00
2022-12-01T01:11:09.952Z,17.00
2022-12-01T01:13:39.004Z,17.50
2022-12-01T01:16:13.612Z,17.00
2022-12-01T01:18:41.493Z,20.10
2022-12-01T01:21:14.375Z,16.70
2022-12-01T01:23:43.176Z,18.90
2022-12-01T01:26:17.859Z,14.70
2022-12-01T01:28:47.080Z,17.80
2022-12-01T01:31:18.228Z,18.80
2022-12-01T01:33:46.583Z,15.50
2022-12-01T01:36:15.803Z,18.00
2022-12-01T01:38:43.951Z,18.50
2022-12-01T01:41:12.034Z,18.60
2022-12-01T01:43:48.926Z,16.70
2022-12-01T01:46:19.598Z,17.20
2022-12-01T01:49:00.220Z,15.40
2022-12-01T01:51:40.982Z,17.00
2022-12-01T01:54:19.316Z,17.40
2022-12-01T01:56:50.261Z,18.40
2022-12-01T01:59:28.260Z,17.70
2022-12-01T02:04:39.022Z,20.80
2022-12-01T02:07:08.537Z,18.00
2022-12-01T02:09:36.798Z,17.50
2022-12-01T02:12:28.793Z,19.70
2022-12-01T02:15:18.308Z,18.60
2022-12-01T02:17:59.388Z,20.20
2022-12-01T02:20:27.244Z,20.90
2022-12-01T02:23:34.443Z,20.40
2022-12-01T02:26:15.889Z,19.50
2022-12-01T02:29:17.781Z,17.90
2022-12-01T02:32:04.392Z,20.70
2022-12-01T02:34:46.872Z,22.00
2022-12-01T02:37:34.295Z,24.10
2022-12-01T02:40:14.377Z,23.60
2022-12-01T02:42:54.331Z,17.80
2022-12-01T02:45:51.037Z,23.10
2022-12-01T02:51:05.324Z,22.00
2022-12-01T02:53:34.231Z,23.30
2022-12-01T02:56:07.151Z,22.60
2022-12-01T02:58:34.962Z,22.20
2022-12-01T03:01:14.883Z,17.40
2022-12-01T03:04:20.583Z,22.00
2022-12-01T03:06:57.656Z,21.00
2022-12-01T03:10:03.017Z,21.70
2022-12-01T03:13:18.496Z,23.60
2022-12-01T03:16:08.695Z,22.60
2022-12-01T03:18:44.410Z,23.10
2022-12-01T03:21:24.763Z,22.20
2022-12-01T03:23:58.883Z,22.30
2022-12-01T03:26:30.266Z,19.60
2022-12-01T03:29:09.859Z,21.40
2022-12-01T03:31:43.370Z,21.90
2022-12-01T03:34:39.593Z,19.70
2022-12-01T03:37:31.627Z,27.00
2022-12-01T03:40:02.107Z,23.40
2022-12-01T03:42:37.710Z,25.10
2022-12-01T03:45:10.436Z,24.80
2022-12-01T03:47:40.473Z,24.00
2022-12-01T03:50:13.359Z,26.30
2022-12-01T03:52:53.328Z,22.40
2022-12-01T03:55:24.840Z,24.00
2022-12-01T03:58:23.259Z,18.40
2022-12-01T04:00:57.722Z,20.90
2022-12-01T04:03:26.678Z,22.60
2022-12-01T04:05:54.479Z,27.70
2022-12-01T04:08:22.273Z,26.40
2022-12-01T04:10:49.993Z,24.10
2022-12-01T04:13:24.075Z,24.40
2022-12-01T04:15:53.701Z,24.40
2022-12-01T04:18:22.490Z,25.50
2022-12-01T04:20:50.908Z,23.90
2022-12-01T04:23:37.242Z,21.30
2022-12-01T04:26:05.312Z,23.90
2022-12-01T04:28:33.219Z,24.20
2022-12-01T04:31:00.965Z,21.90
2022-12-01T04:33:29.627Z,22.50
2022-12-01T04:35:59.565Z,26.90
2022-12-01T04:38:30.910Z,24.30
2022-12-01T04:43:26.634Z,22.30
2022-12-01T04:45:54.329Z,20.90
2022-12-01T04:48:22.156Z,21.50
2022-12-01T04:50:50.114Z,21.90
2022-12-01T04:53:17.881Z,21.90
2022-12-01T04:55:45.747Z,21.00
2022-12-01T04:58:13.531Z,23.10
2022-12-01T05:00:41.406Z,19.30
2022-12-01T05:03:14.717Z,20.10
2022-12-01T05:05:43.044Z,25.40
2022-12-01T05:08:11.112Z,21.20
2022-12-01T05:10:38.875Z,20.40
2022-12-01T05:13:06.639Z,23.10
2022-12-01T05:15:34.402Z,21.30
2022-12-01T05:18:02.163Z,21.10
2022-12-01T05:20:48.667Z,20.00
2022-12-01T05:23:17.258Z,23.80
2022-12-01T05:25:45.136Z,22.90
2022-12-01T05:28:12.889Z,24.50
2022-12-01T05:30:40.944Z,19.40
2022-12-01T05:33:08.726Z,18.70
2022-12-01T05:35:36.887Z,20.70
2022-12-01T05:38:07.991Z,21.40
2022-12-01T05:40:37.236Z,21.10
2022-12-01T05:43:05.957Z,21.40
2022-12-01T05:45:34.814Z,23.50
2022-12-01T05:48:03.079Z,20.50
2022-12-01T05:50:31.032Z,19.70
2022-12-01T05:52:58.804Z,18.90
2022-12-01T05:55:26.503Z,20.20
2022-12-01T05:57:54.432Z,20.70
2022-12-01T06:00:22.401Z,18.40
2022-12-01T06:02:50.093Z,20.20
2022-12-01T06:05:17.926Z,21.40
2022-12-01T06:07:45.698Z,23.00
2022-12-01T06:10:13.454Z,20.60
2022-12-01T06:12:41.190Z,18.90
2022-12-01T06:15:11.666Z,19.60
2022-12-01T06:17:40.568Z,21.30
2022-12-01T06:20:10.155Z,25.60
2022-12-01T06:22:38.150Z,20.20
2022-12-01T06:25:06.979Z,21.20
2022-12-01T06:27:34.728Z,20.30
2022-12-01T06:30:03.139Z,20.80
2022-12-01T06:32:30.937Z,22.20
2022-12-01T06:34:58.729Z,21.50
2022-12-01T06:37:27.868Z,23.10
2022-12-01T06:39:55.711Z,22.70
2022-12-01T06:42:23.606Z,26.10
2022-12-01T06:44:51.349Z,23.40
2022-12-01T06:47:19.105Z,26.40
2022-12-01T06:49:47.235Z,23.60
2022-12-01T06:52:15.568Z,22.70
2022-12-01T06:54:43.268Z,25.40
2022-12-01T06:57:11.074Z,21.30
2022-12-01T06:59:38.946Z,22.80
2022-12-01T07:02:06.945Z,20.10
2022-12-01T07:04:34.689Z,24.30
2022-12-01T07:07:05.383Z,22.70
2022-12-01T07:09:34.043Z,20.00
2022-12-01T07:12:01.868Z,25.00
2022-12-01T07:14:31.727Z,23.00
2022-12-01T07:17:00.036Z,21.20
2022-12-01T07:19:28.038Z,24.00
2022-12-01T07:21:55.789Z,22.00
2022-12-01T07:24:23.554Z,26.20
2022-12-01T07:26:51.319Z,24.70
2022-12-01T07:29:19.334Z,26.50
2022-12-01T07:31:47.012Z,23.60
2022-12-01T07:34:15.083Z,22.60
2022-12-01T07:36:42.906Z,22.80
2022-12-01T07:39:10.622Z,25.50
2022-12-01T07:41:38.611Z,26.80
2022-12-01T07:44:06.895Z,25.50
2022-12-01T07:46:34.813Z,22.80
2022-12-01T07:49:06.248Z,27.40
2022-12-01T07:51:35.231Z,22.60
2022-12-01T07:54:05.171Z,19.10
2022-12-01T07:56:33.488Z,20.10
2022-12-01T07:59:01.248Z,21.90
2022-12-01T08:01:29.005Z,20.20
2022-12-01T08:03:58.233Z,22.90
2022-12-01T08:06:26.997Z,20.50
2022-12-01T08:08:55.067Z,22.90
2022-12-01T08:11:25.605Z,21.90
2022-12-01T08:13:54.012Z,20.00
2022-12-01T08:16:23.534Z,21.30
2022-12-01T08:18:51.445Z,21.20
2022-12-01T08:21:21.872Z,20.70
2022-12-01T08:23:54.859Z,18.50
2022-12-01T08:26:24.170Z,20.10
2022-12-01T08:28:52.032Z,23.10
2022-12-01T08:31:24.111Z,24.10
2022-12-01T08:33:52.725Z,21.80
2022-12-01T08:36:21.944Z,25.50
2022-12-01T08:38:53.024Z,20.40
2022-12-01T08:41:22.167Z,25.60
2022-12-01T08:43:57.956Z,41.70
2022-12-01T08:46:29.494Z,29.20
2022-12-01T08:48:58.073Z,23.00
2022-12-01T08:51:26.669Z,21.00
2022-12-01T08:53:56.500Z,20.80
2022-12-01T08:56:26.516Z,21.00
2022-12-01T08:58:55.547Z,24.00
2022-12-01T09:01:25.811Z,23.00
2022-12-01T09:04:06.180Z,20.50
2022-12-01T09:06:42.842Z,19.50
2022-12-01T09:09:13.896Z,22.00
2022-12-01T09:11:43.987Z,19.50
2022-12-01T09:14:12.911Z,20.20
2022-12-01T09:16:42.247Z,21.50
2022-12-01T09:19:12.986Z,21.60
2022-12-01T09:21:43.486Z,19.30
2022-12-01T09:24:13.981Z,21.70
2022-12-01T09:26:42.647Z,25.40
2022-12-01T09:29:13.724Z,24.80
2022-12-01T09:31:42.743Z,26.20
2022-12-01T09:34:14.149Z,40.90
2022-12-01T09:36:42.351Z,38.20
2022-12-01T09:39:14.080Z,29.50
2022-12-01T09:41:50.002Z,24.40
2022-12-01T09:44:28.647Z,24.70
2022-12-01T09:47:03.965Z,23.40
2022-12-01T09:50:07.021Z,18.20
2022-12-01T09:52:58.808Z,22.80
2022-12-01T09:55:29.128Z,21.00
2022-12-01T09:57:59.348Z,20.80
2022-12-01T10:00:34.284Z,22.80
2022-12-01T10:03:11.487Z,22.90
2022-12-01T10:06:18.587Z,23.50
2022-12-01T10:08:44.087Z,23.80
2022-12-01T10:11:21.570Z,22.20
2022-12-01T10:13:49.290Z,19.60
2022-12-01T10:16:27.945Z,18.50
2022-12-01T10:19:01.958Z,20.70
2022-12-01T10:21:38.903Z,21.60
2022-12-01T10:24:22.008Z,17.80
2022-12-01T10:26:59.431Z,17.70
2022-12-01T10:29:35.588Z,18.70
2022-12-01T10:32:14.928Z,21.10
2022-12-01T10:34:46.610Z,22.30
2022-12-01T10:37:24.170Z,20.40
2022-12-01T10:39:54.552Z,21.10
2022-12-01T10:42:34.345Z,24.10
2022-12-01T10:45:10.847Z,19.30
2022-12-01T10:47:38.700Z,23.50
2022-12-01T10:50:07.579Z,23.40
2022-12-01T10:52:37.985Z,22.60
2022-12-01T10:55:26.584Z,23.20
2022-12-01T10:57:56.987Z,23.50
2022-12-01T11:00:57.915Z,21.40
2022-12-01T11:03:22.586Z,22.70
2022-12-01T11:05:58.316Z,25.30
2022-12-01T11:08:37.279Z,25.90
2022-12-01T11:11:05.444Z,21.30
2022-12-01T11:13:37.195Z,25.60
2022-12-01T11:16:07.231Z,24.10
2022-12-01T11:18:38.615Z,25.70
2022-12-01T11:21:08.555Z,22.40
2022-12-01T11:23:55.960Z,24.40
2022-12-01T11:26:31.179Z,24.60
2022-12-01T11:29:03.511Z,22.60
2022-12-01T11:31:47.052Z,24.30
2022-12-01T11:34:25.839Z,28.70
2022-12-01T11:36:56.960Z,26.30
2022-12-01T11:39:24.729Z,28.50
2022-12-01T11:41:57.907Z,26.20
2022-12-01T11:44:50.361Z,36.50
2022-12-01T11:50:25.904Z,28.30
2022-12-01T11:52:53.635Z,27.00
2022-12-01T11:55:23.889Z,27.90
2022-12-01T11:57:54.781Z,33.30
2022-12-01T12:00:28.955Z,33.30
2022-12-01T12:03:05.796Z,27.70
2022-12-01T12:05:57.653Z,29.60
2022-12-01T12:08:58.638Z,26.40
2022-12-01T12:11:30.623Z,30.20
2022-12-01T12:14:20.568Z,27.10
2022-12-01T12:16:57.452Z,31.90
2022-12-01T12:19:59.967Z,29.80
2022-12-01T12:22:55.735Z,26.90
2022-12-01T12:26:11.155Z,28.90
2022-12-01T12:28:57.247Z,31.60
2022-12-01T12:31:40.005Z,28.50
2022-12-01T12:34:07.973Z,31.90
2022-12-01T12:36:45.066Z,30.40
2022-12-01T12:39:18.811Z,37.80
2022-12-01T12:41:51.533Z,38.70
2022-12-01T12:44:57.953Z,39.00
2022-12-01T12:47:40.464Z,39.70
2022-12-01T12:50:39.359Z,33.80
2022-12-01T12:53:21.278Z,41.20
2022-12-01T12:55:53.294Z,39.40
2022-12-01T12:58:29.188Z,44.80
2022-12-01T13:01:23.819Z,37.20
2022-12-01T13:03:59.029Z,41.00
2022-12-01T13:07:05.432Z,37.80
2022-12-01T13:09:44.496Z,36.20
2022-12-01T13:12:26.380Z,40.50
2022-12-01T13:15:01.425Z,38.80
2022-12-01T13:17:41.301Z,41.20
2022-12-01T13:20:18.262Z,38.30
2022-12-01T13:22:47.258Z,47.40
2022-12-01T13:25:25.904Z,43.60
2022-12-01T13:27:55.366Z,42.10
2022-12-01T13:30:25.924Z,46.50
2022-12-01T13:33:05.270Z,47.40
2022-12-01T13:35:36.896Z,46.80
2022-12-01T13:40:44.450Z,47.40
2022-12-01T13:43:30.895Z,49.20
2022-12-01T13:46:02.908Z,44.00
2022-12-01T13:48:36.743Z,49.60
2022-12-01T13:51:05.173Z,44.90
2022-12-01T13:53:36.184Z,45.50
2022-12-01T13:56:04.064Z,48.30
2022-12-01T13:58:34.698Z,43.00
2022-12-01T14:01:22.158Z,52.80
2022-12-01T14:04:02.666Z,45.20
2022-12-01T14:06:38.539Z,41.10
2022-12-01T14:09:18.167Z,40.00
2022-12-01T14:12:20.239Z,33.00
2022-12-01T14:14:59.731Z,46.00
2022-12-01T14:17:32.810Z,30.60
2022-12-01T14:20:19.421Z,40.20
2022-12-01T14:23:02.172Z,31.70
2022-12-01T14:25:31.778Z,34.80
2022-12-01T14:28:03.782Z,35.50
2022-12-01T14:30:40.717Z,33.80
2022-12-01T14:33:40.045Z,34.40
2022-12-01T14:36:23.058Z,30.90
2022-12-01T14:38:59.176Z,30.20
2022-12-01T14:41:31.986Z,25.10
2022-12-01T14:44:06.913Z,28.30
2022-12-01T14:46:40.808Z,25.70
2022-12-01T14:49:20.281Z,22.20
2022-12-01T14:51:53.264Z,25.20
2022-12-01T14:54:30.129Z,21.40
2022-12-01T14:57:06.803Z,20.80
2022-12-01T14:59:36.928Z,23.20
2022-12-01T15:02:12.040Z,22.10
2022-12-01T15:05:13.010Z,21.40
2022-12-01T15:07:43.633Z,20.90
2022-12-01T15:10:36.985Z,23.00
2022-12-01T15:13:30.345Z,18.10
2022-12-01T15:16:04.135Z,16.10
2022-12-01T15:18:39.804Z,14.80
2022-12-01T15:21:18.536Z,13.90
2022-12-01T15:23:58.678Z,15.20
2022-12-01T15:26:35.137Z,16.10
2022-12-01T15:29:13.763Z,32.10
2022-12-01T15:31:44.827Z,16.70
2022-12-01T15:34:19.623Z,14.00
2022-12-01T15:36:48.549Z,17.70
2022-12-01T15:39:19.192Z,11.40
2022-12-01T15:41:53.782Z,12.50
2022-12-01T15:44:28.241Z,16.30
2022-12-01T15:46:56.835Z,13.80
2022-12-01T15:49:33.627Z,15.00
2022-12-01T15:52:12.699Z,15.60
2022-12-01T15:54:40.440Z,15.80
2022-12-01T15:57:09.120Z,18.80
2022-12-01T15:59:44.366Z,19.00
2022-12-01T16:02:32.888Z,18.30
2022-12-01T16:05:08.895Z,15.90
2022-12-01T16:08:12.289Z,15.90
2022-12-01T16:10:30.482Z,18.10
2022-12-01T16:13:38.511Z,16.80
2022-12-01T16:16:36.467Z,16.20
2022-12-01T16:19:07.371Z,15.70
2022-12-01T16:21:43.054Z,17.30
2022-12-01T16:24:17.152Z,16.50
2022-12-01T16:27:06.690Z,17.80
2022-12-01T16:29:48.202Z,15.00
2022-12-01T16:32:40.094Z,17.80
2022-12-01T16:35:27.596Z,16.30
2022-12-01T16:37:55.596Z,19.30
2022-12-01T16:40:23.522Z,21.20
2022-12-01T16:42:51.355Z,18.50
2022-12-01T16:45:20.242Z,18.70
2022-12-01T16:47:49.457Z,16.00
2022-12-01T16:50:20.111Z,19.10
2022-12-01T16:52:48.024Z,17.20
2022-12-01T16:55:48.243Z,19.40
2022-12-01T16:58:16.060Z,19.90
2022-12-01T17:00:43.933Z,19.30
2022-12-01T17:03:13.742Z,19.90
2022-12-01T17:05:41.609Z,21.50
2022-12-01T17:08:09.315Z,18.80
2022-12-01T17:10:41.500Z,22.20
2022-12-01T17:13:09.872Z,19.80
2022-12-01T17:15:45.260Z,21.30
2022-12-01T17:18:15.285Z,19.70
2022-12-01T17:20:43.557Z,25.70
2022-12-01T17:23:11.679Z,22.40
2022-12-01T17:25:42.349Z,22.30
2022-12-01T17:28:10.113Z,22.50
2022-12-01T17:30:38.181Z,21.40
2022-12-01T17:33:05.944Z,26.40
2022-12-01T17:35:33.696Z,22.50
2022-12-01T17:38:01.471Z,24.80
2022-12-01T17:40:29.467Z,29.70
2022-12-01T17:42:57.202Z,25.50
2022-12-01T17:45:24.967Z,27.30
2022-12-01T17:47:55.085Z,32.10
2022-12-01T17:50:22.847Z,29.00
2022-12-01T17:52:51.635Z,31.90
2022-12-01T17:55:19.706Z,42.20
2022-12-01T17:57:47.651Z,30.90
2022-12-01T18:00:16.052Z,35.80
2022-12-01T18:02:43.967Z,30.30
2022-12-01T18:05:11.915Z,29.10
2022-12-01T18:07:39.660Z,31.10
2022-12-01T18:10:07.929Z,28.00
2022-12-01T18:12:35.686Z,28.70
2022-12-01T18:15:04.771Z,29.30
2022-12-01T18:17:32.566Z,28.80
2022-12-01T18:20:00.380Z,29.60
2022-12-01T18:22:28.388Z,29.50
2022-12-01T18:24:56.782Z,30.30
2022-12-01T18:27:24.924Z,30.70
2022-12-01T18:29:52.571Z,33.10
2022-12-01T18:32:20.336Z,32.80
2022-12-01T18:34:48.549Z,30.40
2022-12-01T18:37:16.833Z,27.70
2022-12-01T18:39:45.079Z,34.20
2022-12-01T18:42:12.817Z,32.00
2022-12-01T18:44:42.350Z,27.00
2022-12-01T18:47:10.246Z,33.30
2022-12-01T18:49:38.199Z,26.80
2022-12-01T18:52:05.963Z,29.30
2022-12-01T18:54:35.765Z,25.20
2022-12-01T18:57:03.655Z,32.10
2022-12-01T18:59:31.350Z,25.30
2022-12-01T19:01:59.136Z,26.50
2022-12-01T19:04:26.899Z,29.60
2022-12-01T19:06:55.547Z,27.90
2022-12-01T19:09:23.350Z,26.50
2022-12-01T19:11:58.891Z,29.40
2022-12-01T19:14:28.288Z,22.60
2022-12-01T19:16:56.773Z,33.40
2022-12-01T19:19:24.628Z,30.90
2022-12-01T19:21:53.328Z,27.90
2022-12-01T19:24:21.156Z,28.60
2022-12-01T19:26:48.920Z,27.10
2022-12-01T19:29:16.696Z,26.20
2022-12-01T19:31:44.496Z,27.80
2022-12-01T19:34:12.276Z,30.20
2022-12-01T19:36:40.110Z,29.20
2022-12-01T19:39:08.301Z,28.80
2022-12-01T19:41:36.154Z,23.40
2022-12-01T19:44:04.495Z,23.80
2022-12-01T19:46:32.215Z,28.30
2022-12-01T19:49:01.691Z,27.60
2022-12-01T19:51:32.429Z,27.80
2022-12-01T19:54:00.190Z,28.10
2022-12-01T19:56:28.440Z,28.10
2022-12-01T19:58:57.558Z,32.80
2022-12-01T20:01:26.804Z,25.80
2022-12-01T20:03:54.942Z,24.20
2022-12-01T20:06:25.556Z,24.00
2022-12-01T20:08:56.051Z,23.80
2022-12-01T20:11:24.688Z,24.60
2022-12-01T20:13:53.162Z,26.00
2022-12-01T20:16:23.811Z,22.90
2022-12-01T20:18:53.073Z,22.90
2022-12-01T20:21:23.095Z,26.40
2022-12-01T20:24:02.940Z,28.30
2022-12-01T20:26:36.987Z,27.00
2022-12-01T20:29:28.264Z,31.30
2022-12-01T20:31:59.088Z,24.20
2022-12-01T20:34:31.176Z,26.70
2022-12-01T20:36:59.358Z,23.20
2022-12-01T20:39:28.709Z,26.50
2022-12-01T20:41:56.503Z,24.70
2022-12-01T20:44:24.219Z,23.40
2022-12-01T20:46:52.594Z,27.80
2022-12-01T20:49:20.816Z,25.30
2022-12-01T20:51:48.814Z,20.50
2022-12-01T20:54:33.482Z,22.60
2022-12-01T20:57:01.394Z,24.00
2022-12-01T20:59:29.290Z,28.10
2022-12-01T21:01:57.085Z,24.70
2022-12-01T21:04:24.974Z,23.30
2022-12-01T21:06:56.282Z,21.40
2022-12-01T21:09:24.972Z,23.30
2022-12-01T21:12:11.309Z,22.50
2022-12-01T21:14:52.734Z,25.90
2022-12-01T21:17:34.287Z,29.60
2022-12-01T21:20:08.883Z,26.90
2022-12-01T21:22:36.728Z,30.20
2022-12-01T21:25:15.926Z,26.90
2022-12-01T21:27:43.665Z,30.40
2022-12-01T21:30:25.940Z,24.00
2022-12-01T21:32:54.257Z,23.20
2022-12-01T21:35:27.047Z,25.40
2022-12-01T21:38:00.548Z,20.80
2022-12-01T21:40:28.826Z,25.10
2022-12-01T21:43:01.604Z,23.60
2022-12-01T21:45:32.236Z,20.80
2022-12-01T21:48:06.666Z,20.00
2022-12-01T21:50:34.520Z,21.90
2022-12-01T21:53:02.297Z,27.10
2022-12-01T21:55:33.349Z,25.80
2022-12-01T21:58:01.415Z,25.20
2022-12-01T22:00:37.140Z,29.20
2022-12-01T22:03:21.880Z,28.20
2022-12-01T22:06:13.759Z,27.20
2022-12-01T22:08:43.272Z,26.80
2022-12-01T22:11:11.004Z,23.30
2022-12-01T22:13:49.668Z,21.30
2022-12-01T22:16:40.623Z,23.50
2022-12-01T22:19:27.185Z,27.60
2022-12-01T22:22:00.917Z,27.90
2022-12-01T22:24:44.191Z,32.30
2022-12-01T22:27:30.595Z,27.20
2022-12-01T22:30:01.501Z,28.60
2022-12-01T22:32:42.777Z,27.50
2022-12-01T22:35:24.986Z,22.40
2022-12-01T22:37:59.923Z,29.60
2022-12-01T22:40:38.628Z,41.10
2022-12-01T22:43:15.815Z,30.20
2022-12-01T22:45:46.664Z,27.40
2022-12-01T22:48:33.456Z,30.80
2022-12-01T22:51:29.635Z,29.20
2022-12-01T22:54:15.676Z,31.90
2022-12-01T22:56:44.953Z,31.50
2022-12-01T22:59:21.558Z,29.50
2022-12-01T23:01:55.668Z,33.20
2022-12-01T23:04:37.940Z,22.90
2022-12-01T23:07:10.351Z,28.80
2022-12-01T23:09:43.671Z,30.50
2022-12-01T23:12:11.331Z,28.20
2022-12-01T23:14:43.958Z,30.40
2022-12-01T23:17:32.812Z,24.40
2022-12-01T23:20:25.782Z,23.50
2022-12-01T23:22:58.894Z,26.30
2022-12-01T23:25:28.209Z,23.60
2022-12-01T23:28:00.277Z,20.80
2022-12-01T23:30:28.092Z,27.20
2022-12-01T23:33:19.509Z,27.70
2022-12-01T23:36:05.600Z,26.30
2022-12-01T23:38:43.405Z,20.90
2022-12-01T23:41:16.588Z,21.40
2022-12-01T23:43:45.881Z,23.90
2022-12-01T23:46:20.494Z,20.20
2022-12-01T23:48:54.113Z,22.30
2022-12-01T23:51:30.844Z,19.00
2022-12-01T23:54:01.618Z,22.40
2022-12-01T23:56:31.736Z,20.10
2022-12-01T23:59:01.252Z,20.40
